Red Town, Illinois
Current Conditions -  °F | °C
As of 4:52 AM on Wednesday 22 Oct 2014 (Local Time) from KMDH Reporting Station
Clear Clear  
Wind Chill: 42°   Ceiling: Unl
Heat Index: 42°   Visibility: NA
Dew Point: 40°   Wind: 3mph
Humidity: 92%   Direction: 60°ENE
Pressure: 30.24"   Gusts: NA
Location:  37.6428°N, 89.4674°W
Report Text: KMDH 220952Z AUTO 06003KT CLR 06/04 A3024 RMK AO2 SLP239 T00560044 $
Loading
Personal Weather Stations






























Interactive Weather Map
Tropical Storm Tracking
New forecast layout! Learn more

10-Day Weather Forecast

Advertisements
Track Severe Weather on mobile